createdAt,value
2019-05-25T00:00:27.871Z,7.43
2019-05-25T00:02:59.863Z,7.83
2019-05-25T00:05:31.829Z,7.47
2019-05-25T00:08:03.823Z,7.30
2019-05-25T00:10:35.798Z,7.23
2019-05-25T00:13:07.839Z,6.97
2019-05-25T00:15:39.847Z,8.03
2019-05-25T00:18:11.855Z,7.73
2019-05-25T00:20:43.890Z,7.50
2019-05-25T00:23:15.826Z,7.20
2019-05-25T00:25:47.810Z,8.20
2019-05-25T00:28:19.782Z,8.10
2019-05-25T00:30:51.722Z,7.53
2019-05-25T00:33:23.733Z,7.77
2019-05-25T00:35:55.798Z,8.20
2019-05-25T00:38:27.742Z,8.53
2019-05-25T00:40:59.730Z,8.53
2019-05-25T00:43:31.702Z,8.53
2019-05-25T00:46:03.686Z,8.40
2019-05-25T00:48:35.643Z,9.27
2019-05-25T00:51:07.676Z,8.43
2019-05-25T00:53:39.669Z,8.53
2019-05-25T00:56:11.703Z,9.37
2019-05-25T00:58:43.677Z,8.47
2019-05-25T01:01:15.724Z,8.60
2019-05-25T01:03:47.675Z,8.73
2019-05-25T01:06:19.707Z,8.33
2019-05-25T01:08:51.713Z,8.17
2019-05-25T01:11:23.726Z,8.00
2019-05-25T01:13:55.699Z,8.67
2019-05-25T01:16:27.694Z,7.60
2019-05-25T01:18:59.685Z,8.53
2019-05-25T01:21:32.464Z,8.67
2019-05-25T01:24:04.472Z,8.00
2019-05-25T01:26:36.460Z,8.50
2019-05-25T01:29:08.408Z,8.67
2019-05-25T01:31:40.478Z,9.60
2019-05-25T01:34:12.462Z,9.10
2019-05-25T01:36:44.554Z,8.17
2019-05-25T01:39:16.526Z,9.33
2019-05-25T01:41:48.504Z,9.57
2019-05-25T01:44:20.483Z,8.87
2019-05-25T01:46:52.462Z,9.70
2019-05-25T01:49:24.448Z,9.40
2019-05-25T01:51:56.414Z,10.20
2019-05-25T01:54:28.374Z,9.03
2019-05-25T01:57:00.353Z,8.93
2019-05-25T01:59:32.348Z,9.57
2019-05-25T02:02:04.371Z,10.27
2019-05-25T02:04:36.335Z,9.53
2019-05-25T02:07:08.308Z,10.30
2019-05-25T02:09:40.321Z,9.43
2019-05-25T02:12:12.352Z,10.00
2019-05-25T02:14:44.324Z,10.27
2019-05-25T02:17:16.329Z,9.30
2019-05-25T02:19:48.425Z,10.00
2019-05-25T02:22:20.421Z,10.60
2019-05-25T02:24:52.407Z,9.63
2019-05-25T02:27:24.411Z,10.57
2019-05-25T02:29:56.380Z,9.67
2019-05-25T02:32:28.379Z,10.70
2019-05-25T02:35:00.369Z,8.53
2019-05-25T02:37:32.368Z,9.47
2019-05-25T02:40:04.494Z,9.33
2019-05-25T02:42:36.500Z,8.87
2019-05-25T02:45:09.232Z,9.03
2019-05-25T02:47:41.247Z,9.10
2019-05-25T02:50:13.226Z,9.53
2019-05-25T02:52:45.261Z,9.80
2019-05-25T02:55:32.503Z,9.00
2019-05-25T02:57:51.141Z,9.10
2019-05-25T03:00:31.059Z,9.20
2019-05-25T03:03:03.448Z,9.00
2019-05-25T03:05:35.438Z,8.83
2019-05-25T03:08:07.381Z,9.50
2019-05-25T03:10:39.489Z,9.63
2019-05-25T03:13:11.451Z,10.07
2019-05-25T03:15:43.460Z,9.33
2019-05-25T03:18:15.427Z,9.90
2019-05-25T03:20:47.400Z,10.63
2019-05-25T03:23:19.370Z,10.30
2019-05-25T03:25:51.443Z,10.47
2019-05-25T03:28:23.398Z,9.67
2019-05-25T03:30:55.375Z,10.77
2019-05-25T03:33:27.333Z,10.03
2019-05-25T03:35:59.349Z,8.90
2019-05-25T03:38:31.300Z,9.27
2019-05-25T03:41:03.305Z,9.70
2019-05-25T03:43:35.300Z,9.00
2019-05-25T03:46:07.356Z,9.47
2019-05-25T03:48:39.349Z,10.37
2019-05-25T03:51:11.336Z,10.50
2019-05-25T03:53:43.303Z,10.37
2019-05-25T03:56:15.301Z,9.87
2019-05-25T03:58:47.243Z,10.70
2019-05-25T04:01:19.252Z,11.13
2019-05-25T04:03:51.235Z,9.40
2019-05-25T04:06:23.314Z,10.03
2019-05-25T04:08:55.349Z,9.07
2019-05-25T04:11:27.368Z,9.60
2019-05-25T04:13:59.364Z,9.73
2019-05-25T04:16:31.406Z,10.60
2019-05-25T04:19:03.485Z,10.83
2019-05-25T04:21:35.494Z,9.93
2019-05-25T04:24:11.461Z,9.80
2019-05-25T04:26:43.481Z,9.83
2019-05-25T04:29:15.462Z,9.60
2019-05-25T04:31:47.441Z,10.17
2019-05-25T04:34:19.438Z,10.57
2019-05-25T04:36:51.659Z,10.10
2019-05-25T04:39:23.649Z,10.47
2019-05-25T04:41:55.616Z,10.07
2019-05-25T04:44:27.609Z,10.63
2019-05-25T04:46:59.618Z,9.93
2019-05-25T04:49:31.573Z,9.80
2019-05-25T04:52:03.551Z,10.33
2019-05-25T04:54:35.555Z,9.50
2019-05-25T04:57:07.629Z,9.40
2019-05-25T04:59:39.775Z,10.10
2019-05-25T05:02:11.781Z,12.03
2019-05-25T05:04:43.829Z,10.10
2019-05-25T05:07:15.829Z,9.77
2019-05-25T05:10:01.541Z,10.67
2019-05-25T05:12:21.675Z,9.87
2019-05-25T05:14:56.458Z,10.23
2019-05-25T05:17:27.821Z,9.80
2019-05-25T05:19:59.928Z,9.93
2019-05-25T05:22:31.931Z,9.97
2019-05-25T05:25:04.715Z,9.67
2019-05-25T05:27:36.714Z,9.50
2019-05-25T05:30:08.857Z,9.60
2019-05-25T05:32:40.830Z,9.05
2019-05-25T05:35:12.985Z,9.20
2019-05-25T05:37:45.375Z,9.37
2019-05-25T05:40:17.370Z,9.40
2019-05-25T05:42:50.240Z,9.97
2019-05-25T05:45:22.202Z,9.23
2019-05-25T05:47:54.646Z,9.23
2019-05-25T05:50:26.686Z,9.87
2019-05-25T05:53:01.171Z,9.57
2019-05-25T05:55:33.158Z,9.13
2019-05-25T05:58:05.251Z,9.83
2019-05-25T06:00:37.446Z,10.10
2019-05-25T06:03:09.439Z,10.50
2019-05-25T06:05:41.448Z,10.40
2019-05-25T06:08:13.441Z,10.70
2019-05-25T06:10:45.474Z,10.05
2019-05-25T06:13:17.455Z,11.10
2019-05-25T06:15:49.474Z,11.05
2019-05-25T06:18:21.444Z,11.90
2019-05-25T06:20:53.464Z,11.28
2019-05-25T06:23:25.448Z,12.28
2019-05-25T06:25:57.540Z,11.55
2019-05-25T06:28:29.584Z,11.33
2019-05-25T06:31:01.678Z,11.70
2019-05-25T06:33:33.690Z,12.58
2019-05-25T06:36:05.760Z,10.98
2019-05-25T06:38:37.743Z,11.08
2019-05-25T06:41:09.808Z,10.85
2019-05-25T06:43:41.871Z,10.80
2019-05-25T06:46:13.945Z,10.60
2019-05-25T06:48:45.931Z,10.53
2019-05-25T06:51:17.987Z,10.70
2019-05-25T06:53:49.990Z,11.68
2019-05-25T06:56:21.975Z,10.82
2019-05-25T06:58:53.975Z,11.18
2019-05-25T07:01:26.010Z,10.93
2019-05-25T07:03:57.964Z,10.30
2019-05-25T07:06:29.995Z,9.50
2019-05-25T07:09:01.983Z,9.75
2019-05-25T07:11:34.028Z,8.78
2019-05-25T07:14:06.063Z,8.95
2019-05-25T07:16:38.173Z,9.10
2019-05-25T07:19:10.277Z,9.15
2019-05-25T07:21:42.280Z,8.53
2019-05-25T07:24:14.275Z,8.53
2019-05-25T07:26:46.288Z,8.85
2019-05-25T07:29:18.292Z,9.55
2019-05-25T07:31:50.357Z,9.00
2019-05-25T07:34:22.292Z,9.13
2019-05-25T07:36:54.326Z,9.53
2019-05-25T07:39:26.320Z,9.00
2019-05-25T07:41:58.311Z,8.63
2019-05-25T07:44:30.340Z,8.93
2019-05-25T07:47:02.338Z,7.75
2019-05-25T07:49:34.318Z,7.87
2019-05-25T07:52:06.351Z,7.97
2019-05-25T07:54:38.323Z,8.30
2019-05-25T07:57:10.340Z,8.80
2019-05-25T07:59:42.310Z,7.85
2019-05-25T08:02:14.318Z,7.45
2019-05-25T08:04:46.315Z,7.75
2019-05-25T08:07:18.563Z,7.30
2019-05-25T08:09:50.570Z,7.45
2019-05-25T08:12:22.567Z,7.90
2019-05-25T08:14:56.435Z,8.40
2019-05-25T08:17:28.441Z,7.03
2019-05-25T08:20:00.460Z,7.53
2019-05-25T08:22:32.560Z,8.00
2019-05-25T08:25:04.954Z,6.87
2019-05-25T08:27:36.995Z,7.85
2019-05-25T08:30:09.024Z,8.13
2019-05-25T08:32:51.888Z,8.60
2019-05-25T08:35:29.218Z,8.18
2019-05-25T08:38:09.883Z,7.37
2019-05-25T08:40:41.890Z,6.95
2019-05-25T08:43:13.976Z,7.90
2019-05-25T08:45:46.046Z,7.78
2019-05-25T08:48:18.120Z,8.43
2019-05-25T08:50:50.087Z,8.13
2019-05-25T08:53:39.576Z,8.05
2019-05-25T08:55:56.133Z,7.67
2019-05-25T08:58:28.141Z,6.83
2019-05-25T09:01:00.110Z,8.80
2019-05-25T09:03:32.166Z,7.53
2019-05-25T09:06:04.140Z,7.30
2019-05-25T09:08:36.188Z,7.28
2019-05-25T09:11:08.162Z,8.00
2019-05-25T09:13:40.215Z,7.25
2019-05-25T09:16:12.246Z,6.50
2019-05-25T09:18:44.226Z,7.70
2019-05-25T09:21:16.237Z,7.20
2019-05-25T09:23:48.930Z,7.22
2019-05-25T09:26:21.068Z,6.95
2019-05-25T09:29:04.049Z,7.10
2019-05-25T09:31:27.153Z,7.12
2019-05-25T09:33:59.164Z,6.67
2019-05-25T09:36:31.165Z,6.58
2019-05-25T09:39:05.286Z,6.60
2019-05-25T09:41:37.406Z,6.22
2019-05-25T09:44:09.472Z,6.55
2019-05-25T09:46:41.469Z,5.35
2019-05-25T09:49:13.669Z,6.05
2019-05-25T09:51:48.490Z,5.58
2019-05-25T09:54:19.592Z,6.30
2019-05-25T09:56:51.649Z,6.25
2019-05-25T09:59:23.738Z,6.22
2019-05-25T10:01:55.743Z,8.48
2019-05-25T10:04:27.782Z,7.87
2019-05-25T10:06:59.801Z,7.65
2019-05-25T10:09:31.807Z,6.83
2019-05-25T10:12:03.934Z,6.80
2019-05-25T10:14:35.942Z,6.95
2019-05-25T10:17:08.049Z,7.37
2019-05-25T10:19:39.977Z,6.72
2019-05-25T10:22:12.000Z,6.90
2019-05-25T10:24:44.000Z,6.42
2019-05-25T10:27:16.041Z,6.80
2019-05-25T10:29:48.049Z,6.10
2019-05-25T10:32:20.078Z,6.58
2019-05-25T10:34:52.058Z,7.30
2019-05-25T10:37:24.078Z,6.72
2019-05-25T10:39:56.113Z,6.65
2019-05-25T10:42:28.157Z,5.90
2019-05-25T10:45:00.158Z,6.67
2019-05-25T10:47:32.543Z,6.62
2019-05-25T10:50:05.167Z,6.80
2019-05-25T10:52:37.197Z,6.10
2019-05-25T10:55:11.427Z,6.62
2019-05-25T10:57:43.499Z,6.28
2019-05-25T11:00:17.288Z,7.10
2019-05-25T11:02:49.347Z,6.62
2019-05-25T11:05:21.349Z,7.03
2019-05-25T11:07:53.356Z,6.80
2019-05-25T11:10:25.373Z,6.40
2019-05-25T11:12:57.386Z,5.92
2019-05-25T11:15:29.374Z,6.12
2019-05-25T11:18:01.453Z,6.15
2019-05-25T11:20:33.414Z,5.70
2019-05-25T11:23:05.459Z,6.22
2019-05-25T11:25:37.459Z,6.20
2019-05-25T11:28:09.481Z,6.75
2019-05-25T11:30:41.442Z,6.25
2019-05-25T11:33:13.476Z,5.90
2019-05-25T11:35:45.467Z,6.22
2019-05-25T11:38:17.493Z,6.45
2019-05-25T11:40:49.695Z,6.20
2019-05-25T11:43:21.784Z,6.40
2019-05-25T11:45:53.830Z,6.70
2019-05-25T11:48:25.842Z,7.92
2019-05-25T11:50:57.866Z,7.62
2019-05-25T11:53:29.865Z,9.40
2019-05-25T11:56:01.876Z,9.80
2019-05-25T11:58:46.578Z,9.70
2019-05-25T12:01:07.855Z,9.85
2019-05-25T12:03:39.840Z,10.13
2019-05-25T12:06:11.889Z,10.53
2019-05-25T12:08:43.897Z,9.85
2019-05-25T12:11:15.895Z,9.00
2019-05-25T12:13:47.921Z,10.93
2019-05-25T12:16:19.946Z,9.25
2019-05-25T12:18:51.947Z,9.48
2019-05-25T12:21:23.938Z,9.68
2019-05-25T12:23:55.931Z,8.90
2019-05-25T12:26:27.985Z,8.78
2019-05-25T12:28:59.997Z,7.92
2019-05-25T12:31:32.026Z,8.58
2019-05-25T12:34:04.161Z,8.33
2019-05-25T12:36:36.239Z,9.78
2019-05-25T12:39:08.262Z,7.53
2019-05-25T12:41:40.270Z,9.35
2019-05-25T12:44:12.283Z,9.18
2019-05-25T12:46:44.378Z,8.95
2019-05-25T12:49:16.416Z,8.80
2019-05-25T12:51:48.448Z,9.03
2019-05-25T12:54:20.431Z,9.08
2019-05-25T12:56:52.445Z,8.05
2019-05-25T12:59:24.486Z,9.48
2019-05-25T13:01:56.498Z,10.53
2019-05-25T13:04:28.481Z,8.33
2019-05-25T13:07:00.481Z,9.68
2019-05-25T13:09:32.509Z,8.85
2019-05-25T13:12:04.510Z,8.70
2019-05-25T13:14:36.488Z,8.80
2019-05-25T13:17:08.558Z,8.40
2019-05-25T13:19:41.408Z,8.63
2019-05-25T13:22:13.395Z,8.50
2019-05-25T13:24:45.454Z,7.60
2019-05-25T13:27:17.504Z,8.65
2019-05-25T13:29:49.515Z,7.80
2019-05-25T13:32:21.574Z,7.65
2019-05-25T13:34:53.600Z,8.48
2019-05-25T13:37:25.771Z,7.75
2019-05-25T13:39:57.776Z,7.12
2019-05-25T13:42:29.840Z,7.60
2019-05-25T13:45:01.886Z,9.35
2019-05-25T13:47:33.961Z,8.10
2019-05-25T13:50:06.681Z,8.70
2019-05-25T13:52:38.862Z,7.87
2019-05-25T13:55:11.099Z,8.48
2019-05-25T13:57:43.323Z,9.10
2019-05-25T14:00:15.339Z,8.55
2019-05-25T14:02:47.378Z,6.85
2019-05-25T14:05:19.420Z,6.30
2019-05-25T14:07:51.427Z,5.62
2019-05-25T14:10:23.465Z,6.25
2019-05-25T14:12:55.471Z,5.92
2019-05-25T14:15:27.478Z,5.62
2019-05-25T14:17:59.474Z,5.72
2019-05-25T14:20:31.551Z,4.35
2019-05-25T14:23:03.571Z,3.92
2019-05-25T14:25:35.690Z,3.80
2019-05-25T14:28:07.721Z,3.77
2019-05-25T14:30:39.797Z,3.70
2019-05-25T14:33:11.888Z,4.70
2019-05-25T14:35:44.039Z,5.03
2019-05-25T14:38:16.019Z,5.58
2019-05-25T14:40:48.171Z,8.40
2019-05-25T14:43:20.256Z,7.50
2019-05-25T14:45:53.401Z,7.50
2019-05-25T14:48:25.782Z,7.40
2019-05-25T14:50:57.849Z,8.30
2019-05-25T14:53:30.007Z,8.47
2019-05-25T14:56:02.033Z,10.20
2019-05-25T14:58:34.073Z,10.63
2019-05-25T15:01:06.147Z,9.80
2019-05-25T15:03:38.252Z,11.33
2019-05-25T15:06:10.311Z,10.50
2019-05-25T15:08:42.346Z,14.40
2019-05-25T15:11:14.419Z,14.10
2019-05-25T15:13:46.465Z,14.40
2019-05-25T15:16:18.564Z,10.33
2019-05-25T15:18:50.625Z,10.80
2019-05-25T15:21:22.757Z,8.67
2019-05-25T15:23:54.851Z,10.03
2019-05-25T15:26:26.867Z,12.27
2019-05-25T15:28:58.933Z,13.47
2019-05-25T15:31:31.023Z,11.33
2019-05-25T15:34:03.351Z,11.67
2019-05-25T15:36:35.769Z,11.27
2019-05-25T15:39:07.837Z,11.33
2019-05-25T15:41:39.923Z,12.40
2019-05-25T15:44:11.952Z,13.33
2019-05-25T15:46:44.111Z,15.53
2019-05-25T15:49:16.093Z,15.93
2019-05-25T15:51:48.140Z,12.90
2019-05-25T15:54:20.148Z,12.07
2019-05-25T15:56:52.191Z,15.97
2019-05-25T15:59:24.219Z,13.77
2019-05-25T16:01:56.284Z,13.00
2019-05-25T16:04:28.507Z,13.43
2019-05-25T16:07:00.537Z,14.63
2019-05-25T16:09:32.574Z,15.50
2019-05-25T16:12:04.711Z,18.37
2019-05-25T16:14:36.789Z,17.20
2019-05-25T16:17:08.822Z,15.73
2019-05-25T16:19:40.818Z,15.27
2019-05-25T16:22:12.913Z,16.10
2019-05-25T16:24:45.056Z,16.17
2019-05-25T16:27:17.332Z,15.87
2019-05-25T16:29:49.382Z,16.00
2019-05-25T16:32:21.467Z,19.03
2019-05-25T16:34:53.586Z,18.17
2019-05-25T16:37:25.748Z,18.07
2019-05-25T16:39:57.865Z,16.30
2019-05-25T16:42:29.931Z,16.70
2019-05-25T16:45:05.539Z,14.93
2019-05-25T16:47:35.924Z,15.43
2019-05-25T16:50:08.562Z,13.73
2019-05-25T16:52:40.911Z,15.03
2019-05-25T16:55:13.270Z,14.10
2019-05-25T16:57:45.305Z,13.97
2019-05-25T17:00:27.268Z,13.90
2019-05-25T17:02:59.697Z,14.27
2019-05-25T17:05:31.779Z,15.87
2019-05-25T17:08:03.863Z,15.97
2019-05-25T17:10:35.937Z,15.13
2019-05-25T17:13:08.000Z,17.30
2019-05-25T17:15:40.076Z,14.67
2019-05-25T17:18:12.109Z,15.40
2019-05-25T17:20:44.189Z,14.37
2019-05-25T17:23:16.188Z,13.37
2019-05-25T17:25:48.326Z,14.33
2019-05-25T17:28:20.472Z,15.03
2019-05-25T17:30:52.526Z,16.10
2019-05-25T17:33:44.531Z,14.47
2019-05-25T17:36:04.447Z,14.33
2019-05-25T17:38:36.482Z,13.70
2019-05-25T17:41:08.515Z,14.07
2019-05-25T17:43:40.569Z,15.57
2019-05-25T17:46:12.680Z,15.40
2019-05-25T17:48:44.741Z,15.77
2019-05-25T17:51:16.894Z,16.93
2019-05-25T17:53:48.943Z,19.30
2019-05-25T17:56:20.985Z,18.57
2019-05-25T17:58:53.020Z,18.60
2019-05-25T18:01:25.105Z,17.10
2019-05-25T18:04:06.711Z,17.17
2019-05-25T18:06:31.205Z,16.93
2019-05-25T18:09:05.910Z,16.97
2019-05-25T18:11:38.136Z,17.17
2019-05-25T18:14:10.200Z,16.67
2019-05-25T18:16:42.349Z,17.47
2019-05-25T18:19:14.384Z,15.37
2019-05-25T18:21:46.500Z,16.13
2019-05-25T18:24:18.564Z,14.93
2019-05-25T18:26:50.640Z,15.00
2019-05-25T18:29:23.872Z,15.57
2019-05-25T18:31:56.122Z,15.13
2019-05-25T18:34:28.222Z,15.27
2019-05-25T18:37:00.372Z,16.43
2019-05-25T18:39:32.417Z,14.87
2019-05-25T18:42:04.533Z,17.17
2019-05-25T18:44:36.565Z,15.83
2019-05-25T18:47:08.648Z,17.93
2019-05-25T18:49:40.773Z,18.87
2019-05-25T18:52:12.836Z,17.77
2019-05-25T18:54:44.877Z,18.47
2019-05-25T18:57:16.935Z,17.63
2019-05-25T18:59:49.009Z,16.20
2019-05-25T19:02:21.033Z,16.00
2019-05-25T19:04:59.507Z,17.10
2019-05-25T19:07:27.122Z,17.87
2019-05-25T19:09:59.160Z,20.03
2019-05-25T19:12:31.235Z,18.80
2019-05-25T19:15:05.263Z,19.03
2019-05-25T19:17:37.340Z,17.97
2019-05-25T19:20:09.631Z,16.83
2019-05-25T19:22:41.752Z,18.30
2019-05-25T19:25:14.952Z,18.70
2019-05-25T19:27:47.140Z,17.10
2019-05-25T19:30:19.523Z,18.80
2019-05-25T19:32:51.607Z,17.97
2019-05-25T19:35:23.748Z,19.47
2019-05-25T19:37:55.865Z,18.20
2019-05-25T19:40:28.069Z,17.27
2019-05-25T19:43:00.051Z,18.10
2019-05-25T19:45:33.006Z,16.23
2019-05-25T19:48:05.259Z,15.50
2019-05-25T19:50:37.342Z,16.33
2019-05-25T19:53:11.524Z,18.53
2019-05-25T19:55:43.592Z,16.97
2019-05-25T19:58:15.668Z,16.53
2019-05-25T20:00:47.695Z,16.43
2019-05-25T20:03:19.727Z,15.60
2019-05-25T20:05:51.821Z,16.33
2019-05-25T20:08:23.853Z,15.80
2019-05-25T20:10:56.026Z,16.83
2019-05-25T20:13:28.083Z,18.70
2019-05-25T20:16:00.218Z,19.37
2019-05-25T20:18:32.308Z,20.20
2019-05-25T20:21:04.449Z,18.53
2019-05-25T20:23:36.672Z,17.97
2019-05-25T20:26:09.194Z,18.80
2019-05-25T20:28:41.263Z,18.10
2019-05-25T20:31:13.393Z,21.73
2019-05-25T20:33:45.481Z,20.20
2019-05-25T20:36:17.707Z,20.10
2019-05-25T20:38:49.827Z,20.33
2019-05-25T20:41:21.990Z,23.07
2019-05-25T20:43:54.144Z,21.27
2019-05-25T20:46:26.273Z,18.10
2019-05-25T20:48:58.380Z,18.17
2019-05-25T20:51:30.449Z,19.70
2019-05-25T20:54:02.527Z,20.60
2019-05-25T20:56:34.617Z,17.43
2019-05-25T20:59:06.618Z,16.30
2019-05-25T21:01:38.808Z,18.97
2019-05-25T21:04:10.952Z,21.23
2019-05-25T21:06:43.029Z,22.07
2019-05-25T21:09:15.079Z,22.20
2019-05-25T21:11:47.297Z,23.43
2019-05-25T21:14:19.399Z,24.57
2019-05-25T21:16:51.457Z,24.60
2019-05-25T21:19:23.534Z,22.27
2019-05-25T21:21:55.620Z,23.43
2019-05-25T21:24:27.793Z,22.83
2019-05-25T21:26:59.830Z,20.93
2019-05-25T21:29:31.899Z,21.93
2019-05-25T21:32:03.977Z,23.70
2019-05-25T21:34:36.133Z,21.87
2019-05-25T21:37:08.178Z,23.03
2019-05-25T21:39:40.284Z,18.33
2019-05-25T21:42:12.339Z,19.33
2019-05-25T21:44:44.403Z,20.50
2019-05-25T21:47:16.542Z,21.63
2019-05-25T21:49:48.643Z,24.00
2019-05-25T21:52:20.749Z,24.40
2019-05-25T21:54:52.769Z,22.53
2019-05-25T21:57:25.896Z,24.47
2019-05-25T21:59:58.142Z,20.07
2019-05-25T22:02:30.155Z,21.77
2019-05-25T22:05:02.206Z,22.27
2019-05-25T22:07:34.447Z,25.13
2019-05-25T22:10:06.966Z,24.67
2019-05-25T22:12:40.433Z,26.80
2019-05-25T22:15:13.340Z,25.93
2019-05-25T22:17:45.340Z,23.27
2019-05-25T22:20:17.948Z,22.93
2019-05-25T22:22:49.959Z,19.83
2019-05-25T22:25:22.033Z,21.50
2019-05-25T22:27:54.063Z,21.77
2019-05-25T22:30:26.165Z,20.40
2019-05-25T22:32:58.124Z,23.60
2019-05-25T22:35:30.136Z,21.13
2019-05-25T22:38:02.199Z,19.57
2019-05-25T22:40:34.203Z,18.90
2019-05-25T22:43:06.181Z,22.10
2019-05-25T22:45:38.231Z,18.70
2019-05-25T22:48:10.240Z,22.90
2019-05-25T22:50:42.417Z,23.03
2019-05-25T22:53:14.361Z,23.47
2019-05-25T22:55:46.369Z,21.17
2019-05-25T22:58:18.328Z,20.63
2019-05-25T23:00:50.310Z,20.43
2019-05-25T23:03:22.274Z,19.73
2019-05-25T23:05:54.339Z,19.53
2019-05-25T23:08:26.347Z,18.97
2019-05-25T23:10:58.457Z,20.20
2019-05-25T23:13:30.564Z,22.67
2019-05-25T23:16:02.603Z,25.23
2019-05-25T23:18:34.649Z,25.13
2019-05-25T23:21:06.656Z,23.90
2019-05-25T23:23:38.626Z,25.37
2019-05-25T23:26:10.624Z,24.57
2019-05-25T23:28:42.653Z,24.97
2019-05-25T23:31:14.682Z,24.20
2019-05-25T23:33:46.679Z,23.50
2019-05-25T23:36:18.659Z,26.97
2019-05-25T23:38:50.682Z,22.40
2019-05-25T23:41:22.737Z,23.73
2019-05-25T23:43:54.722Z,27.03
2019-05-25T23:46:26.702Z,26.27
2019-05-25T23:48:58.707Z,22.63
2019-05-25T23:51:30.677Z,22.20
2019-05-25T23:54:02.670Z,22.13
2019-05-25T23:56:34.668Z,24.60
2019-05-25T23:59:06.661Z,24.43
